sensor_id;sensor_type;location;lat;lon;timestamp;pressure;altitude;pressure_sealevel;temperature;humidity
73671;BME280;61968;48.178;11.566;2023-07-29T00:00:43;95508.69;;;17.89;48.40
73671;BME280;61968;48.178;11.566;2023-07-29T00:03:10;95512.13;;;17.95;48.17
73671;BME280;61968;48.178;11.566;2023-07-29T00:05:36;95505.94;;;18.00;48.22
73671;BME280;61968;48.178;11.566;2023-07-29T00:08:04;95501.59;;;18.04;47.94
73671;BME280;61968;48.178;11.566;2023-07-29T00:10:34;95500.81;;;18.03;47.68
73671;BME280;61968;48.178;11.566;2023-07-29T00:13:02;95501.66;;;17.99;47.82
73671;BME280;61968;48.178;11.566;2023-07-29T00:15:29;95498.22;;;17.93;48.11
73671;BME280;61968;48.178;11.566;2023-07-29T00:17:55;95495.28;;;17.95;47.85
73671;BME280;61968;48.178;11.566;2023-07-29T00:20:22;95505.69;;;17.96;47.49
73671;BME280;61968;48.178;11.566;2023-07-29T00:22:49;95506.78;;;17.95;47.71
73671;BME280;61968;48.178;11.566;2023-07-29T00:25:18;95496.97;;;17.85;48.05
73671;BME280;61968;48.178;11.566;2023-07-29T00:27:46;95489.94;;;17.95;47.87
73671;BME280;61968;48.178;11.566;2023-07-29T00:30:13;95493.69;;;17.94;47.61
73671;BME280;61968;48.178;11.566;2023-07-29T00:32:39;95487.06;;;17.86;47.97
73671;BME280;61968;48.178;11.566;2023-07-29T00:35:07;95477.34;;;17.95;47.89
73671;BME280;61968;48.178;11.566;2023-07-29T00:37:34;95476.03;;;17.92;47.33
73671;BME280;61968;48.178;11.566;2023-07-29T00:40:00;95482.75;;;17.90;47.62
73671;BME280;61968;48.178;11.566;2023-07-29T00:42:27;95487.31;;;17.89;47.98
73671;BME280;61968;48.178;11.566;2023-07-29T00:44:55;95480.06;;;17.90;47.18
73671;BME280;61968;48.178;11.566;2023-07-29T00:47:22;95478.25;;;17.85;47.84
73671;BME280;61968;48.178;11.566;2023-07-29T00:49:51;95481.16;;;17.89;47.48
73671;BME280;61968;48.178;11.566;2023-07-29T00:52:18;95485.41;;;17.90;47.12
73671;BME280;61968;48.178;11.566;2023-07-29T00:54:43;95481.16;;;17.89;47.22
73671;BME280;61968;48.178;11.566;2023-07-29T00:57:11;95485.94;;;17.92;47.12
73671;BME280;61968;48.178;11.566;2023-07-29T00:59:39;95481.88;;;18.00;46.97
73671;BME280;61968;48.178;11.566;2023-07-29T01:02:08;95484.78;;;18.03;46.79
73671;BME280;61968;48.178;11.566;2023-07-29T01:04:34;95481.53;;;18.06;46.94
73671;BME280;61968;48.178;11.566;2023-07-29T01:07:08;95481.22;;;18.08;47.05
73671;BME280;61968;48.178;11.566;2023-07-29T01:09:51;95480.22;;;18.04;47.39
73671;BME280;61968;48.178;11.566;2023-07-29T01:12:27;95477.00;;;18.02;46.62
73671;BME280;61968;48.178;11.566;2023-07-29T01:14:59;95475.19;;;17.97;46.83
73671;BME280;61968;48.178;11.566;2023-07-29T01:17:33;95475.25;;;17.92;46.75
73671;BME280;61968;48.178;11.566;2023-07-29T01:20:07;95473.84;;;18.00;47.30
73671;BME280;61968;48.178;11.566;2023-07-29T01:22:35;95468.19;;;18.01;47.64
73671;BME280;61968;48.178;11.566;2023-07-29T01:25:04;95464.09;;;18.09;47.45
73671;BME280;61968;48.178;11.566;2023-07-29T01:27:31;95464.00;;;18.19;46.77
73671;BME280;61968;48.178;11.566;2023-07-29T01:29:58;95466.00;;;18.08;46.66
73671;BME280;61968;48.178;11.566;2023-07-29T01:32:38;95474.84;;;18.04;47.19
73671;BME280;61968;48.178;11.566;2023-07-29T01:35:12;95471.84;;;18.10;46.78
73671;BME280;61968;48.178;11.566;2023-07-29T01:37:41;95467.97;;;17.98;46.79
73671;BME280;61968;48.178;11.566;2023-07-29T01:40:12;95463.31;;;18.08;47.44
73671;BME280;61968;48.178;11.566;2023-07-29T01:42:39;95461.66;;;18.12;46.79
73671;BME280;61968;48.178;11.566;2023-07-29T01:45:06;95462.50;;;18.08;46.39
73671;BME280;61968;48.178;11.566;2023-07-29T01:47:33;95466.00;;;18.08;47.58
73671;BME280;61968;48.178;11.566;2023-07-29T01:50:04;95458.25;;;18.07;46.74
73671;BME280;61968;48.178;11.566;2023-07-29T01:52:31;95452.09;;;18.06;46.66
73671;BME280;61968;48.178;11.566;2023-07-29T01:54:57;95456.88;;;18.09;46.34
73671;BME280;61968;48.178;11.566;2023-07-29T01:57:25;95456.34;;;18.07;46.84
73671;BME280;61968;48.178;11.566;2023-07-29T01:59:52;95462.78;;;18.06;46.67
73671;BME280;61968;48.178;11.566;2023-07-29T02:02:19;95455.88;;;18.05;46.93
73671;BME280;61968;48.178;11.566;2023-07-29T02:04:45;95452.09;;;18.06;47.00
73671;BME280;61968;48.178;11.566;2023-07-29T02:07:16;95446.69;;;18.11;46.62
73671;BME280;61968;48.178;11.566;2023-07-29T02:09:43;95449.13;;;18.08;47.30
73671;BME280;61968;48.178;11.566;2023-07-29T02:12:10;95445.38;;;18.09;46.96
73671;BME280;61968;48.178;11.566;2023-07-29T02:14:38;95453.97;;;18.06;47.09
73671;BME280;61968;48.178;11.566;2023-07-29T02:17:04;95448.09;;;18.04;47.50
73671;BME280;61968;48.178;11.566;2023-07-29T02:19:31;95436.84;;;18.07;46.71
73671;BME280;61968;48.178;11.566;2023-07-29T02:21:58;95441.97;;;18.03;47.04
73671;BME280;61968;48.178;11.566;2023-07-29T02:24:25;95438.53;;;17.98;46.80
73671;BME280;61968;48.178;11.566;2023-07-29T02:26:52;95444.13;;;18.01;47.31
73671;BME280;61968;48.178;11.566;2023-07-29T02:29:18;95438.75;;;18.01;47.20
73671;BME280;61968;48.178;11.566;2023-07-29T02:31:46;95448.78;;;17.90;46.91
73671;BME280;61968;48.178;11.566;2023-07-29T02:34:13;95449.63;;;17.86;47.07
73671;BME280;61968;48.178;11.566;2023-07-29T02:36:39;95450.50;;;17.81;47.52
73671;BME280;61968;48.178;11.566;2023-07-29T02:39:06;95447.19;;;17.89;47.08
73671;BME280;61968;48.178;11.566;2023-07-29T02:41:32;95449.81;;;17.95;47.50
73671;BME280;61968;48.178;11.566;2023-07-29T02:43:59;95453.28;;;17.95;46.75
73671;BME280;61968;48.178;11.566;2023-07-29T02:46:25;95458.69;;;17.90;46.93
73671;BME280;61968;48.178;11.566;2023-07-29T02:48:53;95455.50;;;17.88;47.01
73671;BME280;61968;48.178;11.566;2023-07-29T02:51:20;95453.31;;;17.90;46.95
73671;BME280;61968;48.178;11.566;2023-07-29T02:53:47;95448.78;;;17.90;47.02
73671;BME280;61968;48.178;11.566;2023-07-29T02:56:13;95453.06;;;17.91;47.25
73671;BME280;61968;48.178;11.566;2023-07-29T02:58:40;95453.22;;;18.00;46.88
73671;BME280;61968;48.178;11.566;2023-07-29T03:01:06;95452.88;;;17.83;47.05
73671;BME280;61968;48.178;11.566;2023-07-29T03:03:33;95449.13;;;17.84;47.04
73671;BME280;61968;48.178;11.566;2023-07-29T03:06:05;95446.97;;;17.86;47.32
73671;BME280;61968;48.178;11.566;2023-07-29T03:08:32;95447.53;;;17.83;46.97
73671;BME280;61968;48.178;11.566;2023-07-29T03:11:05;95441.78;;;17.71;47.27
73671;BME280;61968;48.178;11.566;2023-07-29T03:13:31;95438.50;;;17.79;47.39
73671;BME280;61968;48.178;11.566;2023-07-29T03:16:04;95444.81;;;17.88;46.94
73671;BME280;61968;48.178;11.566;2023-07-29T03:18:31;95440.78;;;17.90;47.42
73671;BME280;61968;48.178;11.566;2023-07-29T03:20:58;95437.63;;;17.83;46.78
73671;BME280;61968;48.178;11.566;2023-07-29T03:23:27;95435.25;;;17.82;47.27
73671;BME280;61968;48.178;11.566;2023-07-29T03:25:54;95442.97;;;17.83;47.40
73671;BME280;61968;48.178;11.566;2023-07-29T03:28:23;95446.69;;;17.87;46.93
73671;BME280;61968;48.178;11.566;2023-07-29T03:30:50;95445.41;;;17.80;46.62
73671;BME280;61968;48.178;11.566;2023-07-29T03:33:17;95426.75;;;17.75;46.98
73671;BME280;61968;48.178;11.566;2023-07-29T03:35:43;95418.50;;;17.71;47.37
73671;BME280;61968;48.178;11.566;2023-07-29T03:38:10;95430.28;;;17.70;46.88
73671;BME280;61968;48.178;11.566;2023-07-29T03:40:38;95442.16;;;17.59;46.74
73671;BME280;61968;48.178;11.566;2023-07-29T03:43:05;95432.91;;;17.46;47.17
73671;BME280;61968;48.178;11.566;2023-07-29T03:45:31;95437.41;;;17.51;47.11
73671;BME280;61968;48.178;11.566;2023-07-29T03:47:58;95448.38;;;17.49;46.86
73671;BME280;61968;48.178;11.566;2023-07-29T03:50:25;95450.59;;;17.42;47.24
73671;BME280;61968;48.178;11.566;2023-07-29T03:52:52;95456.19;;;17.45;47.08
73671;BME280;61968;48.178;11.566;2023-07-29T03:55:18;95456.19;;;17.40;47.09
73671;BME280;61968;48.178;11.566;2023-07-29T03:57:47;95444.19;;;17.38;47.25
73671;BME280;61968;48.178;11.566;2023-07-29T04:00:14;95451.63;;;17.41;47.08
73671;BME280;61968;48.178;11.566;2023-07-29T04:02:41;95443.09;;;17.44;47.07
73671;BME280;61968;48.178;11.566;2023-07-29T04:05:08;95446.81;;;17.48;47.16
73671;BME280;61968;48.178;11.566;2023-07-29T04:07:35;95436.84;;;17.54;47.51
73671;BME280;61968;48.178;11.566;2023-07-29T04:10:02;95430.09;;;17.61;46.66
73671;BME280;61968;48.178;11.566;2023-07-29T04:12:28;95431.00;;;17.52;46.59
73671;BME280;61968;48.178;11.566;2023-07-29T04:14:56;95414.66;;;17.53;47.21
73671;BME280;61968;48.178;11.566;2023-07-29T04:17:23;95418.84;;;17.64;46.46
73671;BME280;61968;48.178;11.566;2023-07-29T04:19:50;95411.53;;;17.75;46.68
73671;BME280;61968;48.178;11.566;2023-07-29T04:22:16;95413.63;;;17.78;46.64
73671;BME280;61968;48.178;11.566;2023-07-29T04:24:43;95403.94;;;17.82;46.27
73671;BME280;61968;48.178;11.566;2023-07-29T04:27:10;95400.41;;;17.87;46.57
73671;BME280;61968;48.178;11.566;2023-07-29T04:29:36;95401.50;;;17.86;46.39
73671;BME280;61968;48.178;11.566;2023-07-29T04:32:05;95398.56;;;17.87;46.20
73671;BME280;61968;48.178;11.566;2023-07-29T04:34:32;95402.59;;;17.85;46.28
73671;BME280;61968;48.178;11.566;2023-07-29T04:36:58;95405.53;;;17.83;46.52
73671;BME280;61968;48.178;11.566;2023-07-29T04:39:25;95397.72;;;17.87;46.58
73671;BME280;61968;48.178;11.566;2023-07-29T04:41:52;95399.34;;;17.88;45.89
73671;BME280;61968;48.178;11.566;2023-07-29T04:44:18;95405.03;;;17.81;46.44
73671;BME280;61968;48.178;11.566;2023-07-29T04:46:46;95403.16;;;17.82;46.90
73671;BME280;61968;48.178;11.566;2023-07-29T04:49:14;95411.84;;;17.68;46.34
73671;BME280;61968;48.178;11.566;2023-07-29T04:51:40;95404.53;;;17.50;46.64
73671;BME280;61968;48.178;11.566;2023-07-29T04:54:07;95404.28;;;17.52;47.02
73671;BME280;61968;48.178;11.566;2023-07-29T04:56:33;95401.03;;;17.55;46.74
73671;BME280;61968;48.178;11.566;2023-07-29T04:59:00;95406.56;;;17.63;47.52
73671;BME280;61968;48.178;11.566;2023-07-29T05:01:27;95404.06;;;17.72;46.73
73671;BME280;61968;48.178;11.566;2023-07-29T05:03:53;95399.56;;;17.67;46.79
73671;BME280;61968;48.178;11.566;2023-07-29T05:06:21;95393.66;;;17.71;46.85
73671;BME280;61968;48.178;11.566;2023-07-29T05:08:48;95392.63;;;17.66;46.54
73671;BME280;61968;48.178;11.566;2023-07-29T05:11:14;95396.31;;;17.71;46.42
73671;BME280;61968;48.178;11.566;2023-07-29T05:13:41;95396.09;;;17.67;46.50
73671;BME280;61968;48.178;11.566;2023-07-29T05:16:10;95392.25;;;17.49;47.03
73671;BME280;61968;48.178;11.566;2023-07-29T05:18:37;95390.91;;;17.52;47.16
73671;BME280;61968;48.178;11.566;2023-07-29T05:21:04;95383.16;;;17.50;47.47
73671;BME280;61968;48.178;11.566;2023-07-29T05:23:32;95382.53;;;17.58;47.24
73671;BME280;61968;48.178;11.566;2023-07-29T05:25:59;95380.97;;;17.57;47.17
73671;BME280;61968;48.178;11.566;2023-07-29T05:28:25;95378.13;;;17.73;46.33
73671;BME280;61968;48.178;11.566;2023-07-29T05:30:52;95372.22;;;17.76;46.38
73671;BME280;61968;48.178;11.566;2023-07-29T05:33:18;95377.22;;;17.82;46.44
73671;BME280;61968;48.178;11.566;2023-07-29T05:35:45;95382.69;;;17.72;46.56
73671;BME280;61968;48.178;11.566;2023-07-29T05:38:12;95384.72;;;17.80;46.72
73671;BME280;61968;48.178;11.566;2023-07-29T05:40:40;95392.94;;;17.84;46.58
73671;BME280;61968;48.178;11.566;2023-07-29T05:43:07;95394.25;;;17.86;46.49
73671;BME280;61968;48.178;11.566;2023-07-29T05:45:33;95397.81;;;17.82;46.51
73671;BME280;61968;48.178;11.566;2023-07-29T05:48:00;95399.63;;;17.86;46.60
73671;BME280;61968;48.178;11.566;2023-07-29T05:50:27;95395.06;;;17.87;46.01
73671;BME280;61968;48.178;11.566;2023-07-29T05:52:53;95402.59;;;17.85;46.48
73671;BME280;61968;48.178;11.566;2023-07-29T05:55:20;95395.88;;;17.87;46.01
73671;BME280;61968;48.178;11.566;2023-07-29T05:57:48;95398.56;;;17.87;46.19
73671;BME280;61968;48.178;11.566;2023-07-29T06:00:15;95412.72;;;17.88;46.18
73671;BME280;61968;48.178;11.566;2023-07-29T06:02:42;95425.22;;;17.92;46.52
73671;BME280;61968;48.178;11.566;2023-07-29T06:05:08;95448.31;;;17.83;46.45
73671;BME280;61968;48.178;11.566;2023-07-29T06:07:35;95431.59;;;17.73;46.49
73671;BME280;61968;48.178;11.566;2023-07-29T06:10:02;95387.78;;;17.68;47.09
73671;BME280;61968;48.178;11.566;2023-07-29T06:12:28;95385.06;;;17.74;46.78
73671;BME280;61968;48.178;11.566;2023-07-29T06:14:56;95402.81;;;17.64;47.78
73671;BME280;61968;48.178;11.566;2023-07-29T06:17:23;95391.94;;;17.80;47.47
73671;BME280;61968;48.178;11.566;2023-07-29T06:19:49;95393.25;;;17.82;47.47
73671;BME280;61968;48.178;11.566;2023-07-29T06:22:16;95392.91;;;17.89;47.41
73671;BME280;61968;48.178;11.566;2023-07-29T06:24:42;95397.25;;;17.85;47.64
73671;BME280;61968;48.178;11.566;2023-07-29T06:27:09;95401.94;;;17.93;47.75
73671;BME280;61968;48.178;11.566;2023-07-29T06:29:35;95399.56;;;17.91;47.83
73671;BME280;61968;48.178;11.566;2023-07-29T06:32:04;95408.38;;;17.92;48.43
73671;BME280;61968;48.178;11.566;2023-07-29T06:34:31;95417.88;;;17.55;49.19
73671;BME280;61968;48.178;11.566;2023-07-29T06:36:58;95417.34;;;17.53;49.76
73671;BME280;61968;48.178;11.566;2023-07-29T06:39:24;95418.88;;;17.59;49.10
73671;BME280;61968;48.178;11.566;2023-07-29T06:41:51;95428.19;;;17.67;49.06
73671;BME280;61968;48.178;11.566;2023-07-29T06:44:18;95431.59;;;17.73;48.73
73671;BME280;61968;48.178;11.566;2023-07-29T06:46:50;95438.06;;;17.66;48.93
73671;BME280;61968;48.178;11.566;2023-07-29T06:49:19;95452.50;;;17.65;48.83
73671;BME280;61968;48.178;11.566;2023-07-29T06:51:49;95484.22;;;17.48;49.41
73671;BME280;61968;48.178;11.566;2023-07-29T06:54:17;95483.94;;;17.10;50.35
73671;BME280;61968;48.178;11.566;2023-07-29T06:56:44;95497.38;;;16.95;50.65
73671;BME280;61968;48.178;11.566;2023-07-29T06:59:11;95517.66;;;16.96;51.22
73671;BME280;61968;48.178;11.566;2023-07-29T07:01:37;95517.16;;;16.94;52.49
73671;BME280;61968;48.178;11.566;2023-07-29T07:04:04;95504.63;;;16.89;52.45
73671;BME280;61968;48.178;11.566;2023-07-29T07:06:32;95492.28;;;17.04;53.41
73671;BME280;61968;48.178;11.566;2023-07-29T07:08:59;95484.81;;;17.35;52.09
73671;BME280;61968;48.178;11.566;2023-07-29T07:11:25;95473.81;;;17.41;51.52
73671;BME280;61968;48.178;11.566;2023-07-29T07:13:52;95476.25;;;17.43;51.62
73671;BME280;61968;48.178;11.566;2023-07-29T07:16:19;95474.03;;;17.50;51.16
73671;BME280;61968;48.178;11.566;2023-07-29T07:18:45;95468.41;;;17.52;51.88
73671;BME280;61968;48.178;11.566;2023-07-29T07:21:12;95469.19;;;17.57;51.77
73671;BME280;61968;48.178;11.566;2023-07-29T07:23:40;95480.84;;;17.66;50.95
73671;BME280;61968;48.178;11.566;2023-07-29T07:26:08;95484.09;;;17.63;51.76
73671;BME280;61968;48.178;11.566;2023-07-29T07:28:34;95472.19;;;17.75;50.92
73671;BME280;61968;48.178;11.566;2023-07-29T07:31:01;95471.47;;;17.69;51.28
73671;BME280;61968;48.178;11.566;2023-07-29T07:33:29;95455.97;;;17.66;50.99
73671;BME280;61968;48.178;11.566;2023-07-29T07:35:55;95439.44;;;17.64;51.35
73671;BME280;61968;48.178;11.566;2023-07-29T07:38:22;95442.53;;;17.76;51.07
73671;BME280;61968;48.178;11.566;2023-07-29T07:40:58;95435.75;;;17.84;50.55
73671;BME280;61968;48.178;11.566;2023-07-29T07:43:25;95437.84;;;17.87;50.09
73671;BME280;61968;48.178;11.566;2023-07-29T07:45:57;95431.66;;;17.91;50.28
73671;BME280;61968;48.178;11.566;2023-07-29T07:48:24;95414.59;;;17.87;51.39
73671;BME280;61968;48.178;11.566;2023-07-29T07:50:53;95412.72;;;17.88;50.90
73671;BME280;61968;48.178;11.566;2023-07-29T07:53:19;95410.44;;;18.00;50.33
73671;BME280;61968;48.178;11.566;2023-07-29T07:55:46;95409.75;;;18.13;51.23
73671;BME280;61968;48.178;11.566;2023-07-29T07:58:14;95411.19;;;18.30;50.40
73671;BME280;61968;48.178;11.566;2023-07-29T08:00:40;95405.97;;;18.39;50.24
73671;BME280;61968;48.178;11.566;2023-07-29T08:03:07;95412.94;;;18.40;49.65
73671;BME280;61968;48.178;11.566;2023-07-29T08:05:33;95414.56;;;18.35;50.09
73671;BME280;61968;48.178;11.566;2023-07-29T08:08:00;95419.28;;;18.44;49.83
73671;BME280;61968;48.178;11.566;2023-07-29T08:10:27;95409.88;;;18.46;49.52
73671;BME280;61968;48.178;11.566;2023-07-29T08:12:53;95418.50;;;18.43;49.41
73671;BME280;61968;48.178;11.566;2023-07-29T08:15:21;95414.00;;;18.39;49.66
73671;BME280;61968;48.178;11.566;2023-07-29T08:17:47;95407.22;;;18.46;49.46
73671;BME280;61968;48.178;11.566;2023-07-29T08:20:14;95415.09;;;18.38;49.24
73671;BME280;61968;48.178;11.566;2023-07-29T08:22:41;95415.03;;;18.43;49.40
73671;BME280;61968;48.178;11.566;2023-07-29T08:25:08;95413.56;;;18.50;49.54
73671;BME280;61968;48.178;11.566;2023-07-29T08:27:34;95420.44;;;18.56;49.61
73671;BME280;61968;48.178;11.566;2023-07-29T08:30:01;95414.81;;;18.58;50.00
73671;BME280;61968;48.178;11.566;2023-07-29T08:32:30;95423.56;;;18.64;49.09
73671;BME280;61968;48.178;11.566;2023-07-29T08:34:57;95420.38;;;18.62;49.99
73671;BME280;61968;48.178;11.566;2023-07-29T08:37:23;95415.66;;;18.53;49.43
73671;BME280;61968;48.178;11.566;2023-07-29T08:39:52;95422.59;;;18.35;49.53
73671;BME280;61968;48.178;11.566;2023-07-29T08:42:20;95415.75;;;18.48;51.77
73671;BME280;61968;48.178;11.566;2023-07-29T08:44:49;95420.81;;;18.50;50.08
73671;BME280;61968;48.178;11.566;2023-07-29T08:47:18;95419.38;;;18.57;50.85
73671;BME280;61968;48.178;11.566;2023-07-29T08:49:47;95428.63;;;18.46;49.95
73671;BME280;61968;48.178;11.566;2023-07-29T08:52:14;95419.16;;;18.54;50.55
73671;BME280;61968;48.178;11.566;2023-07-29T08:54:41;95428.63;;;18.65;50.26
73671;BME280;61968;48.178;11.566;2023-07-29T08:57:08;95426.63;;;18.76;49.96
73671;BME280;61968;48.178;11.566;2023-07-29T08:59:35;95436.63;;;18.89;50.13
73671;BME280;61968;48.178;11.566;2023-07-29T09:02:02;95426.69;;;18.90;49.86
73671;BME280;61968;48.178;11.566;2023-07-29T09:04:28;95428.41;;;18.80;49.04
73671;BME280;61968;48.178;11.566;2023-07-29T09:06:57;95430.34;;;18.75;48.86
73671;BME280;61968;48.178;11.566;2023-07-29T09:09:25;95426.94;;;18.93;49.64
73671;BME280;61968;48.178;11.566;2023-07-29T09:11:51;95416.03;;;19.03;48.92
73671;BME280;61968;48.178;11.566;2023-07-29T09:14:18;95425.47;;;19.01;48.43
73671;BME280;61968;48.178;11.566;2023-07-29T09:16:46;95423.81;;;18.86;47.99
73671;BME280;61968;48.178;11.566;2023-07-29T09:19:13;95427.16;;;18.97;48.59
73671;BME280;61968;48.178;11.566;2023-07-29T09:21:39;95423.19;;;19.08;48.21
73671;BME280;61968;48.178;11.566;2023-07-29T09:24:08;95428.88;;;19.07;47.16
73671;BME280;61968;48.178;11.566;2023-07-29T09:26:35;95423.66;;;18.96;48.51
73671;BME280;61968;48.178;11.566;2023-07-29T09:29:03;95418.88;;;19.12;47.67
73671;BME280;61968;48.178;11.566;2023-07-29T09:31:30;95425.81;;;19.13;47.44
73671;BME280;61968;48.178;11.566;2023-07-29T09:33:57;95417.31;;;19.25;47.27
73671;BME280;61968;48.178;11.566;2023-07-29T09:36:24;95418.56;;;19.14;48.20
73671;BME280;61968;48.178;11.566;2023-07-29T09:38:55;95422.00;;;19.33;47.65
73671;BME280;61968;48.178;11.566;2023-07-29T09:41:27;95422.34;;;19.45;47.18
73671;BME280;61968;48.178;11.566;2023-07-29T09:43:57;95413.16;;;19.52;47.43
73671;BME280;61968;48.178;11.566;2023-07-29T09:46:25;95417.53;;;19.61;46.36
73671;BME280;61968;48.178;11.566;2023-07-29T09:48:53;95405.94;;;19.66;46.43
73671;BME280;61968;48.178;11.566;2023-07-29T09:51:21;95413.25;;;19.74;46.70
73671;BME280;61968;48.178;11.566;2023-07-29T09:53:49;95412.66;;;19.77;46.18
73671;BME280;61968;48.178;11.566;2023-07-29T09:56:16;95415.06;;;19.79;45.73
73671;BME280;61968;48.178;11.566;2023-07-29T09:58:45;95414.47;;;19.82;46.21
73671;BME280;61968;48.178;11.566;2023-07-29T10:01:12;95418.06;;;19.91;45.13
73671;BME280;61968;48.178;11.566;2023-07-29T10:03:39;95412.88;;;19.67;46.08
73671;BME280;61968;48.178;11.566;2023-07-29T10:06:07;95401.84;;;19.82;45.42
73671;BME280;61968;48.178;11.566;2023-07-29T10:08:34;95401.47;;;19.75;45.88
73671;BME280;61968;48.178;11.566;2023-07-29T10:11:05;95390.53;;;19.85;45.62
73671;BME280;61968;48.178;11.566;2023-07-29T10:13:32;95391.63;;;19.84;44.66
73671;BME280;61968;48.178;11.566;2023-07-29T10:16:02;95394.78;;;19.59;45.59
73671;BME280;61968;48.178;11.566;2023-07-29T10:18:31;95387.34;;;19.83;44.87
73671;BME280;61968;48.178;11.566;2023-07-29T10:21:01;95387.34;;;19.97;44.63
73671;BME280;61968;48.178;11.566;2023-07-29T10:23:37;95380.78;;;20.17;44.51
73671;BME280;61968;48.178;11.566;2023-07-29T10:26:05;95379.28;;;20.38;44.25
73671;BME280;61968;48.178;11.566;2023-07-29T10:28:33;95378.69;;;20.28;44.17
73671;BME280;61968;48.178;11.566;2023-07-29T10:31:03;95365.78;;;20.16;44.48
73671;BME280;61968;48.178;11.566;2023-07-29T10:33:31;95374.16;;;20.14;44.11
73671;BME280;61968;48.178;11.566;2023-07-29T10:36:00;95366.84;;;20.29;42.51
73671;BME280;61968;48.178;11.566;2023-07-29T10:38:28;95360.59;;;19.92;43.18
73671;BME280;61968;48.178;11.566;2023-07-29T10:40:56;95364.06;;;20.20;43.18
73671;BME280;61968;48.178;11.566;2023-07-29T10:43:25;95358.50;;;20.30;42.13
73671;BME280;61968;48.178;11.566;2023-07-29T10:45:55;95363.78;;;20.35;43.01
73671;BME280;61968;48.178;11.566;2023-07-29T10:48:42;95361.75;;;20.41;42.53
73671;BME280;61968;48.178;11.566;2023-07-29T10:51:23;95361.63;;;20.60;42.36
73671;BME280;61968;48.178;11.566;2023-07-29T10:53:52;95366.13;;;20.73;41.89
73671;BME280;61968;48.178;11.566;2023-07-29T10:56:26;95355.22;;;20.70;41.42
73671;BME280;61968;48.178;11.566;2023-07-29T10:58:55;95355.31;;;20.64;42.06
73671;BME280;61968;48.178;11.566;2023-07-29T11:01:27;95363.91;;;20.53;42.46
73671;BME280;61968;48.178;11.566;2023-07-29T11:04:25;95362.06;;;20.39;42.91
73671;BME280;61968;48.178;11.566;2023-07-29T11:07:18;95371.97;;;20.53;43.00
73671;BME280;61968;48.178;11.566;2023-07-29T11:09:53;95372.22;;;20.65;43.08
73671;BME280;61968;48.178;11.566;2023-07-29T11:12:48;95422.00;;;19.80;42.78
73671;BME280;61968;48.178;11.566;2023-07-29T11:15:22;95413.44;;;18.98;41.53
73671;BME280;61968;48.178;11.566;2023-07-29T11:17:50;95404.03;;;18.63;42.58
73671;BME280;61968;48.178;11.566;2023-07-29T11:20:20;95399.97;;;19.36;41.74
73671;BME280;61968;48.178;11.566;2023-07-29T11:22:48;95418.44;;;19.57;41.28
73671;BME280;61968;48.178;11.566;2023-07-29T11:25:16;95398.03;;;19.23;41.89
73671;BME280;61968;48.178;11.566;2023-07-29T11:27:44;95395.94;;;19.53;41.40
73671;BME280;61968;48.178;11.566;2023-07-29T11:30:12;95391.19;;;19.49;42.10
73671;BME280;61968;48.178;11.566;2023-07-29T11:32:42;95401.03;;;19.35;42.10
73671;BME280;61968;48.178;11.566;2023-07-29T11:35:10;95384.72;;;18.85;43.00
73671;BME280;61968;48.178;11.566;2023-07-29T11:37:39;95378.72;;;18.93;42.39
73671;BME280;61968;48.178;11.566;2023-07-29T11:40:07;95388.72;;;18.88;43.21
73671;BME280;61968;48.178;11.566;2023-07-29T11:42:38;95382.91;;;18.99;42.73
73671;BME280;61968;48.178;11.566;2023-07-29T11:45:07;95377.19;;;19.20;42.68
73671;BME280;61968;48.178;11.566;2023-07-29T11:47:35;95371.94;;;19.61;41.97
73671;BME280;61968;48.178;11.566;2023-07-29T11:50:03;95381.09;;;19.60;41.88
73671;BME280;61968;48.178;11.566;2023-07-29T11:52:32;95385.66;;;19.73;41.83
73671;BME280;61968;48.178;11.566;2023-07-29T11:55:02;95379.50;;;19.73;41.12
73671;BME280;61968;48.178;11.566;2023-07-29T11:57:30;95376.91;;;19.68;41.15
73671;BME280;61968;48.178;11.566;2023-07-29T11:59:57;95368.84;;;19.95;40.67
73671;BME280;61968;48.178;11.566;2023-07-29T12:02:24;95364.50;;;20.00;40.34
73671;BME280;61968;48.178;11.566;2023-07-29T12:04:51;95357.03;;;19.83;40.69
73671;BME280;61968;48.178;11.566;2023-07-29T12:07:18;95367.59;;;19.93;40.71
73671;BME280;61968;48.178;11.566;2023-07-29T12:09:46;95363.91;;;20.03;40.50
73671;BME280;61968;48.178;11.566;2023-07-29T12:12:14;95358.03;;;20.14;40.72
73671;BME280;61968;48.178;11.566;2023-07-29T12:14:44;95355.22;;;20.70;40.13
73671;BME280;61968;48.178;11.566;2023-07-29T12:17:12;95361.38;;;20.70;39.86
73671;BME280;61968;48.178;11.566;2023-07-29T12:19:40;95356.31;;;20.69;39.84
73671;BME280;61968;48.178;11.566;2023-07-29T12:22:08;95344.56;;;21.01;39.35
73671;BME280;61968;48.178;11.566;2023-07-29T12:24:37;95349.19;;;21.09;39.23
73671;BME280;61968;48.178;11.566;2023-07-29T12:27:11;95336.72;;;21.13;39.29
73671;BME280;61968;48.178;11.566;2023-07-29T12:29:43;95351.75;;;21.14;39.60
73671;BME280;61968;48.178;11.566;2023-07-29T12:32:14;95349.03;;;21.05;39.98
73671;BME280;61968;48.178;11.566;2023-07-29T12:34:40;95352.88;;;20.91;40.48
73671;BME280;61968;48.178;11.566;2023-07-29T12:37:07;95340.41;;;21.17;40.35
73671;BME280;61968;48.178;11.566;2023-07-29T12:39:35;95349.19;;;21.09;41.05
73671;BME280;61968;48.178;11.566;2023-07-29T12:42:03;95339.38;;;20.68;42.07
73671;BME280;61968;48.178;11.566;2023-07-29T12:44:30;95337.19;;;20.48;43.45
73671;BME280;61968;48.178;11.566;2023-07-29T12:46:59;95340.38;;;20.72;43.22
73671;BME280;61968;48.178;11.566;2023-07-29T12:49:26;95347.44;;;20.46;45.50
73671;BME280;61968;48.178;11.566;2023-07-29T12:51:53;95407.19;;;20.51;47.31
73671;BME280;61968;48.178;11.566;2023-07-29T12:54:20;95448.09;;;18.71;51.63